Tiempo atmosférico en la estación meteorológica de Alajar, Huelva (572 m.)



Fecha
DESCASC
Temp. máxima en grados centígrados (hora)
DESCASC
Temp. mínima en grados centígrados (hora)
DESCASC
Temp. media en grados centígrados
DESCASC
Racha de viento máxima en m/sg (hora)
DESCASC
Velocidad máxima media en intervalos de 10 minutos(hora)
DESCASC
Precipitaciones diarias en mm
DESCASC
Precipitaciones de 00:00 a 06:00 en mm
DESCASC
Precipitaciones de 06:00 a 12:00 en mm
DESCASC
Precipitaciones de 12:00 a 18:00 en mm
DESCASC
Precipitaciones de 18:00 a 24:00 en mm
DESCASC
18-01-2018 20.6 (15:50) 8.7 (23:50) 14.7 10 (00:50) 5 (01:40) 0 0 0 0 0
17-01-2018 17.5 (15:50) 8.8 (08:00) 13.2 17.22 (09:40) 10.83 (10:00) 0 0 0 0 0
16-01-2018 15.9 (14:10) 4.4 (04:50) 10.1 18.61 (21:30) 13.33 (21:40) 0 0 0 0 0
15-01-2018 12.3 (15:30) 2.9 (02:20) 7.6 13.61 (10:30) 6.94 (10:50) 0 0 0 0 0
14-01-2018 9.1 (15:10) 3.4 (00:00) 6.3 9.17 (12:40) 5 (23:59) 0.8 0 0.8 0 0
13-01-2018 10.7 (16:00) 4.1 (00:00) 7.4 10.56 (15:20) 5.28 (16:10) 8.6 0 7.8 0.8 0
12-01-2018 12.6 (14:40) 1.4 (00:00) 7 13.61 (00:40) 8.89 (00:40) 0 0 0 0 0
11-01-2018 11.4 (15:10) 4.6 (00:00) 8 12.5 (16:00) 6.39 (00:20) 0.2 0 0 0.2 0
10-01-2018 13 (14:30) 7 (00:00) 10 14.72 (02:50) 7.5 (02:40) 1 0.2 0.4 0.2 0.2
09-01-2018 9.4 (23:40) 0.9 (00:00) 5.1 10 (16:50) 4.72 (16:10) 21.8 0 0.2 13 8.6
08-01-2018 8 (15:50) 2.1 (00:00) 5 9.17 (13:10) 5 (13:10) 3.2 3 0.2 0 0
07-01-2018 5.7 (15:20) 1.8 (00:00) 3.7 11.39 (03:30) 6.94 (03:20) 0 0 0 0 0
06-01-2018 8.4 (15:30) 2.5 (00:00) 5.4 17.78 (11:10) 12.78 (11:10) 4.4 4.4 0 0 0
05-01-2018 11 (14:40) 6.5 (00:00) 8.8 10.83 (23:50) 6.39 (14:50) 26 0 0.8 7.4 17.8
04-01-2018 12.6 (16:30) 8.4 (22:30) 10.5 13.33 (02:10) 7.78 (02:20) 0 0 0 0 0
03-01-2018 16.6 (13:50) 9.9 (00:00) 13.3 15.83 (16:40) 10 (16:50) 0 0 0 0 0
02-01-2018 14.7 (16:50) 7.4 (00:00) 11 12.22 (07:40) 7.5 (06:10) 0 0 0 0 0
01-01-2018 14.1 (14:00) 4.1 (00:00) 9.1 13.33 (03:30) 9.44 (03:30) 0 0 0 0 0
31-12-2017 13.1 (12:20) 8.1 (00:00) 10.6 12.78 (19:50) 7.78 (20:10) 0.6 0 0 0.2 0.4
30-12-2017 17.8 (15:10) 9 (00:00) 13.4 7.22 (10:40) 5 (11:00) 0 0 0 0 0
29-12-2017 14.7 (15:20) 10.5 (00:00) 12.6 8.61 (01:00) 4.17 (23:40) 0.8 0.4 0.4 0 0
28-12-2017 13.5 (15:40) 9.9 (00:00) 11.7 12.22 (14:10) 6.11 (18:10) 7.4 2.2 3.4 1.2 0.6
27-12-2017 11.7 (12:40) 8.4 (00:00) 10 14.44 (06:00) 7.5 (04:50) 12 10.4 1.4 0.2 0
26-12-2017 9.7 (00:00) 6.6 (00:00) 8.1 11.11 (05:30) 6.39 (06:10) 3.2 3 0 0 0.2
25-12-2017 11.4 (16:10) 8.4 (00:00) 9.9 7.22 (23:50) 3.89 (19:50) 3.8 0 0.8 0 3
24-12-2017 15.2 (15:40) 7.3 (00:00) 11.3 8.06 (05:10) 4.17 (12:10) 0 0 0 0 0
23-12-2017 16.7 (14:50) 6.1 (00:00) 11.4 10 (00:40) 5.56 (00:40) 0 0 0 0 0
22-12-2017 17.5 (14:00) 7 (00:00) 12.3 8.61 (14:20) 5.83 (15:00) 0 0 0 0 0

Gráficas

Temp. máximas Temp. mínimas Temp. medias Precipitaciones Rachas de viento máximas Velocidades máximas media en intervalos de 10 minutos

Datos horarios

Fecha y hora oficial Temperatura (ºC) Velocidad del viento (km/h) Dirección del viento Racha (km/h) Dirección de racha Precipitación (mm) Presión (hPa) Tendencia (hPa) Humedad (%)
2018-01-20 23:00:00 9.5 8 Sur 33 Norte 0 962.6 0.6 55
2018-01-20 22:00:00 10.6 15 Norte 35 Norte 0 962.3 0.5 52
2018-01-20 21:00:00 11.5 21 Norte 37 Norte 0 962 0.8 45
2018-01-20 20:00:00 11.2 5 Noroeste 18 Noroeste 0 962 1 58
2018-01-20 19:00:00 12.6 7 Norte 24 Noroeste 0 961.8 0.9 36
2018-01-20 18:00:00 15.3 8 Norte 28 Noroeste 0 961.2 0.2 20
2018-01-20 17:00:00 16.9 13 Norte 30 Norte 0 961 -0.5 19
2018-01-20 16:00:00 18.3 10 Norte 28 Noroeste 0 960.9 -1.2 14
2018-01-20 15:00:00 18.6 14 Norte 33 Noroeste 0 961 -1.3 13
2018-01-20 14:00:00 18.3 12 Norte 25 Norte 0 961.5 -0.6 14
2018-01-20 13:00:00 18.4 8 Nordeste 20 Nordeste 0 962.1 0.6 20
2018-01-20 12:00:00 16.4 14 Nordeste 31 Norte 0 962.3 1.5 21
2018-01-20 11:00:00 14.9 13 Norte 33 Nordeste 0 962.1 2 26
2018-01-20 10:00:00 12.9 16 Nordeste 28 Nordeste 0 961.5 2.1 34
2018-01-20 09:00:00 10.3 17 Norte 27 Nordeste 0 960.8 2.1 45
2018-01-20 08:00:00 10 17 Nordeste 32 Nordeste 0 960.1 1.5 53
2018-01-20 07:00:00 10.5 23 Nordeste 33 Nordeste 0 959.4 0.8 51
2018-01-20 06:00:00 10.4 21 Nordeste 35 Nordeste 0 958.7 0.2 55
2018-01-20 05:00:00 11.3 22 Nordeste 31 Nordeste 0 958.6 0.3 47
2018-01-20 04:00:00 11.2 22 Nordeste 31 Nordeste 0 958.6 0.5 50
2018-01-20 03:00:00 10.1 16 Nordeste 26 Nordeste 0 958.5 0.7 61
2018-01-20 02:00:00 9.9 6 Nordeste 31 Norte 0 958.3 0.4 63
2018-01-20 01:00:00 11.7 22 Nordeste 45 Norte 0 958.1 0.3 56
2018-01-20 00:00:00 12.3 36 Norte 49 Norte 0 957.8 0.6 52
2018-01-19 23:00:00 12.3 29 Nordeste 47 Nordeste 0 957.9 1.3 52
2018-01-19 22:00:00 12.7 27 Norte 44 Nordeste 0 957.8 2.2 50
2018-01-19 21:00:00 11.8 26 Norte 36 Norte 0 957.2 2 54
2018-01-19 20:00:00 12 24 Norte 43 Norte 0 956.6 2 59
2018-01-19 19:00:00 13.5 26 Norte 38 Norte 0 955.6 1.4 55
2018-01-19 18:00:00 16 3 Norte 18 Norte 0 955.2 1.3 37
2018-01-19 17:00:00 17.1 11 Norte 24 Norte 0 954.6 0.5 36
2018-01-19 16:00:00 18.2 12 Nordeste 23 Nordeste 0 954.2 -0.1 32
2018-01-19 15:00:00 17.6 13 Nordeste 26 Nordeste 0 953.9 -0.2 31
2018-01-19 14:00:00 16.9 14 Este 31 Norte 0 954.1 0.5 37
2018-01-19 13:00:00 16.4 11 Nordeste 31 Nordeste 0 954.3 1.5 42
2018-01-19 12:00:00 16.4 8 Sudoeste 13 Sudoeste 0 954.1 1.6 41
2018-01-19 11:00:00 13.4 7 Sudoeste 26 Nordeste 0 953.6 1.6 47
2018-01-19 10:00:00 11.2 5 Sudoeste 22 Nordeste 0 952.8 1.2 52
2018-01-19 09:00:00 9 7 Oeste 13 Sudoeste 0 952.5 0.9 57
2018-01-19 08:00:00 9.8 6 Nordeste 17 Norte 0 952 0.4 54
2018-01-19 07:00:00 8.9 6 Oeste 18 Norte 0 951.6 -0.1 56
2018-01-19 06:00:00 9.5 3 Nordeste 16 Nordeste 0 951.6 -0.4 56
2018-01-19 05:00:00 10.3 3 Sur 27 Nordeste 0 951.6 -0.3 52
2018-01-19 04:00:00 10.3 19 Norte 39 Norte 0 951.7 -0.8 50
2018-01-19 03:00:00 10.3 11 Nordeste 35 Nordeste 0 952 -0.5 55
2018-01-19 02:00:00 10.6 24 Norte 34 Nordeste 0 951.9 -0.7 57
2018-01-19 01:00:00 10.1 11 Norte 22 Nordeste 0 952.5 -0.2 65
2018-01-19 00:00:00 9.7 7 Nordeste 14 Nordeste 0 952.5 -0.2 65
2018-01-18 23:00:00 8.9 4 Nordeste 17 Nordeste 0 952.6 -0.3 71
2018-01-18 22:00:00 9.9 11 Nordeste 17 Nordeste 0 952.7 -0.3 69
2018-01-18 21:00:00 10.7 9 Nordeste 15 Nordeste 0 952.7 0 65
2018-01-18 20:00:00 10.8 8 Nordeste 15 Norte 0 952.9 0.6 67
2018-01-18 19:00:00 12.3 5 Nordeste 9 Nordeste 0 953 0.5 64
2018-01-18 18:00:00 14.6 3 Nordeste 15 Norte 0 952.7 0.3 51
2018-01-18 17:00:00 17.3 6 Norte 13 Norte 0 952.3 -1.2 44
2018-01-18 16:00:00 19.2 13 Sudoeste 19 Sudoeste 0 952.5 -1.9 35
2018-01-18 15:00:00 19.8 8 Sur 19 Sudeste 0 952.4 -2.7 32
2018-01-18 14:00:00 19.1 9 Sur 21 Sudeste 0 953.5 -1.5 35
2018-01-18 13:00:00 17.9 8 Sudeste 19 Sudeste 0 954.4 -0.1 34
2018-01-18 12:00:00 16.8 6 Sudeste 22 Este 0 955.1 1 38
2018-01-18 11:00:00 14.5 14 Este 27 Este 0 955 1.4 41
2018-01-18 10:00:00 13.7 11 Este 24 Este 0 954.5 1.1 40
2018-01-18 09:00:00 11.5 4 Este 17 Este 0 954.1 0.7 42
2018-01-18 08:00:00 13 10 Este 20 Este 0 953.6 0.1 37
2018-01-18 07:00:00 12.8 9 Sudeste 31 Este 0 953.4 -0.3 36
2018-01-18 06:00:00 13.1 5 Sur 15 Sudeste 0 953.4 -0.6 34
2018-01-18 05:00:00 13.4 6 Este 22 Este 0 953.5 -0.8 33
2018-01-18 04:00:00 13.7 14 Este 29 Este 0 953.7 -1.2 28
2018-01-18 03:00:00 14.2 13 Este 29 Este 0 954 -0.9 24
2018-01-18 02:00:00 14.4 17 Este 34 Este 0 954.3 -0.7 24
2018-01-18 01:00:00 15.1 16 Este 36 Nordeste 0 954.9 -0.3 24
2018-01-18 00:00:00 14 15 Este 35 Nordeste 0 954.9 -0.2 31
2018-01-17 23:00:00 12.8 17 Este 34 Este 0 955 0 43
2018-01-17 22:00:00 12.3 13 Este 24 Este 0 955.2 0.3 43
2018-01-17 21:00:00 11.5 8 Nordeste 31 Nordeste 0 955.1 0 55
2018-01-17 20:00:00 11.9 21 Nordeste 55 Norte 0 955 0 54
2018-01-17 19:00:00 12.8 19 Nordeste 41 Nordeste 0 954.9 -0.6 54
2018-01-17 18:00:00 14.1 22 Nordeste 39 Nordeste 0 955.1 -0.5 57
2018-01-17 17:00:00 16.1 17 Nordeste 36 Nordeste 0 955 -1.3 50
2018-01-17 16:00:00 16.9 12 Norte 36 Nordeste 0 955.5 -1.5 52
2018-01-17 15:00:00 17.3 19 Norte 39 Nordeste 0 955.6 -2 46
2018-01-17 14:00:00 16.1 17 Nordeste 47 Nordeste 0 956.3 -1 50
2018-01-17 13:00:00 15 12 Nordeste 44 Norte 0 957 0.2 56
2018-01-17 12:00:00 13 29 Norte 61 Nordeste 0 957.6 0.9 64
2018-01-17 11:00:00 11.7 33 Norte 58 Nordeste 0 957.3 0.2 72
2018-01-17 10:00:00 10.6 39 Nordeste 62 Norte 0 956.8 -0.4 76
2018-01-17 09:00:00 9.2 32 Nordeste 53 Nordeste 0 956.7 -0.4 83
2018-01-17 08:00:00 8.9 19 Nordeste 49 Norte 0 957.1 -0.6 85
2018-01-17 07:00:00 9.5 26 Nordeste 47 Nordeste 0 957.2 -1.1 84
2018-01-17 06:00:00 9.6 15 Nordeste 38 Nordeste 0 957.1 -1.7 91
2018-01-17 05:00:00 9.2 16 Nordeste 37 Norte 0 957.7 -1.4 93
2018-01-17 04:00:00 9.4 7 Noroeste 26 Nordeste 0 958.3 -1.1 93
2018-01-17 03:00:00 9.3 5 Norte 26 Norte 0 958.8 -0.4 94
2018-01-17 02:00:00 9.4 17 Nordeste 37 Nordeste 0 959.1 0.3 92
2018-01-17 01:00:00 9.5 17 Nordeste 37 Norte 0 959.4 0.5 94
2018-01-17 00:00:00 9.4 28 Nordeste 66 Norte 0 959.2 0.1 94
2018-01-16 23:00:00 9.3 45 Norte 65 Norte 0 958.8 -0.7 95
2018-01-16 22:00:00 9.2 42 Norte 67 Norte 0 958.9 -0.2 96
2018-01-16 21:00:00 9.2 33 Norte 55 Norte 0 959.1 -0.7 95
2018-01-16 20:00:00 9.2 41 Norte 64 Norte 0 959.5 -1.1 95
2018-01-16 19:00:00 9.2 42 Norte 62 Nordeste 0 959.1 -1.6 93
2018-01-16 18:00:00 9.4 32 Norte 52 Norte 0 959.8 -1.5 92
2018-01-16 17:00:00 12.2 10 Norte 32 Norte 0 960.6 -1.5 76
2018-01-16 16:00:00 14.3 6 Este 33 Norte 0 960.7 -2.2 68
2018-01-16 15:00:00 14.7 12 Norte 23 Norte 0 961.3 -2.2 64
2018-01-16 14:00:00 15.8 7 Sur 14 Sur 0 962.1 -1.3 57
2018-01-16 13:00:00 14.4 9 Sudoeste 22 Nordeste 0 962.9 0 58
2018-01-16 12:00:00 12.1 11 Nordeste 24 Norte 0 963.5 0.9 66
2018-01-16 11:00:00 9.9 13 Norte 23 Nordeste 0 963.4 1.2 62
2018-01-16 10:00:00 7.5 4 Noroeste 7 Sudoeste 0 962.9 1.2 46
2018-01-16 09:00:00 5 5 Nordeste 8 Nordeste 0 962.6 1 58
2018-01-16 08:00:00 5.6 5 Nordeste 8 Nordeste 0 962.2 0.2 57
2018-01-16 07:00:00 5.2 4 Oeste 8 Nordeste 0 961.7 -0.3 59
2018-01-16 06:00:00 5.5 2 Oeste 16 Norte 0 961.6 -0.7 57
2018-01-16 05:00:00 5.2 6 Norte 12 Nordeste 0 962 -0.2 56
2018-01-16 04:00:00 4.8 4 Norte 9 Noroeste 0 962 -0.4 58
2018-01-16 03:00:00 6.6 5 Norte 18 Norte 0 962.3 -0.1 51
2018-01-16 02:00:00 6.8 8 Nordeste 18 Nordeste 0 962.2 0 50
2018-01-16 01:00:00 6 10 Nordeste 14 Nordeste 0 962.4 0.6 57
2018-01-16 00:00:00 6.6 2 Sur 12 Norte 0 962.4 0.8 57
2018-01-15 23:00:00 6.8 16 Nordeste 26 Nordeste 0 962.2 1.2 65
2018-01-15 22:00:00 6.4 13 Norte 24 Norte 0 961.8 1.2 70
2018-01-15 21:00:00 6.3 9 Nordeste 26 Norte 0 961.6 1.7 70
2018-01-15 20:00:00 6.6 8 Norte 21 Norte 0 961 1.7 69
2018-01-15 19:00:00 7.3 10 Norte 16 Norte 0 960.6 1.9 65
2018-01-15 18:00:00 9.9 8 Nordeste 27 Nordeste 0 959.9 1.5 54
2018-01-15 17:00:00 11.3 10 Nordeste 27 Este 0 959.3 0.7 47
2018-01-15 16:00:00 11.9 11 Este 26 Este 0 958.7 -0.4 44
2018-01-15 15:00:00 11.8 13 Este 27 Nordeste 0 958.4 -0.7 45
2018-01-15 14:00:00 11.1 16 Nordeste 25 Nordeste 0 958.6 0.1 48
2018-01-15 13:00:00 10.2 18 Nordeste 32 Nordeste 0 959.1 1.8 49
2018-01-15 12:00:00 9.3 18 Nordeste 35 Nordeste 0 959.1 2.4 52
2018-01-15 11:00:00 7.5 24 Nordeste 49 Nordeste 0 958.5 2.5 56
2018-01-15 10:00:00 5.9 20 Nordeste 40 Nordeste 0 957.3 1.6 66
2018-01-15 09:00:00 4 19 Nordeste 35 Nordeste 0 956.7 1.4 76
2018-01-15 08:00:00 3.6 13 Nordeste 34 Nordeste 0 956 1.1 80
2018-01-15 07:00:00 3.7 21 Nordeste 34 Nordeste 0 955.7 1.1 82
2018-01-15 06:00:00 3.6 21 Nordeste 33 Norte 0 955.3 1.1 81
2018-01-15 05:00:00 3.5 14 Nordeste 31 Nordeste 0 954.9 0.5 81
2018-01-15 04:00:00 3.6 11 Nordeste 31 Nordeste 0 954.6 0 80
2018-01-15 03:00:00 3.6 18 Nordeste 28 Norte 0 954.2 -0.3 78
2018-01-15 02:00:00 3.3 7 Nordeste 27 Nordeste 0 954.4 0.2 80
2018-01-15 01:00:00 4.4 17 Nordeste 37 Nordeste 0 954.6 0.9 73
2018-01-15 00:00:00 4.7 18 Nordeste 33 Nordeste 0 954.5 1.5 72
2018-01-14 23:00:00 4.4 12 Nordeste 27 Norte 0 954.2 1.5 81
2018-01-14 22:00:00 4.4 9 Norte 14 Norte 0 953.7 1.5 83
2018-01-14 21:00:00 4.5 5 Nordeste 15 Norte 0 953 1.3 82
2018-01-14 20:00:00 5.4 11 Norte 22 Norte 0 952.7 1.4 79
2018-01-14 19:00:00 5.8 10 Norte 25 Norte 0 952.2 1.1 79
2018-01-14 18:00:00 6.7 11 Norte 31 Noroeste 0 951.7 0.7 74
2018-01-14 17:00:00 8.7 9 Noroeste 27 Norte 0 951.3 -0.2 63
2018-01-14 16:00:00 7.5 14 Noroeste 27 Noroeste 0 951.1 -1.1 68
2018-01-14 15:00:00 8.6 14 Noroeste 31 Norte 0 951 -1.6 63
2018-01-14 14:00:00 7 11 Norte 28 Noroeste 0 951.5 -1 73
2018-01-14 13:00:00 7.7 14 Noroeste 33 Noroeste 0 952.2 0 74
2018-01-14 12:00:00 7.2 9 Norte 25 Noroeste 0 952.6 0.7 80
2018-01-14 11:00:00 5.4 5 Nordeste 28 Norte 0 952.5 0.6 89
2018-01-14 10:00:00 5.1 8 Norte 24 Norte 0 952.2 0.6 90
2018-01-14 09:00:00 4.9 6 Noroeste 27 Noroeste 0.8 951.9 0 92
2018-01-14 08:00:00 4.7 5 Noroeste 7 Noroeste 0 951.9 -0.6 95
2018-01-14 07:00:00 4.2 4 Noroeste 9 Noroeste 0 951.6 -1.4 95
2018-01-14 06:00:00 4.9 0 Calma 6 Sudoeste 0 951.9 -1.3 97
2018-01-14 05:00:00 4.9 4 Oeste 8 Sudeste 0 952.5 -1 97
2018-01-14 04:00:00 4.6 6 Sur 8 Sur 0 953 -1.3 97
2018-01-14 03:00:00 4.6 5 Sudeste 8 Sudeste 0 953.2 -1.3 96
2018-01-14 02:00:00 5.2 3 Noroeste 7 Noroeste 0 953.5 -0.9 95
2018-01-14 01:00:00 5.4 4 Oeste 7 Oeste 0 954.3 0.3 95
2018-01-14 00:00:00 5.3 2 Sur 10 Oeste 0 954.5 0.6 92
2018-01-13 23:00:00 5.9 4 Noroeste 17 Noroeste 0 954.4 1 90
2018-01-13 22:00:00 6.8 8 Noroeste 21 Noroeste 0 954 0.9 86
2018-01-13 21:00:00 6.8 13 Noroeste 25 Noroeste 0 953.9 1.3 84
2018-01-13 20:00:00 7.2 14 Noroeste 27 Noroeste 0 953.4 1.3 80
2018-01-13 19:00:00 7.5 15 Noroeste 29 Noroeste 0 953.1 1.7 82
2018-01-13 18:00:00 8.7 13 Noroeste 30 Noroeste 0 952.6 1.3 75
2018-01-13 17:00:00 9.4 11 Noroeste 36 Noroeste 0 952.1 0.1 74
2018-01-13 16:00:00 10.6 15 Noroeste 38 Noroeste 0 951.4 -1 72
2018-01-13 15:00:00 9 15 Noroeste 27 Noroeste 0 951.3 -1.7 88
2018-01-13 14:00:00 6.9 3 Oeste 9 Sudoeste 0.2 952 -0.7 98
2018-01-13 13:00:00 6.1 3 Oeste 10 Sur 0.6 952.4 0.3 97
2018-01-13 12:00:00 5.7 3 Este 9 Oeste 4.2 953 0.8 97
2018-01-13 11:00:00 5.2 4 Sur 9 Sudeste 2.2 952.7 0.7 96
2018-01-13 10:00:00 5.3 4 Sudeste 6 Sudeste 1 952.1 0.4 94
2018-01-13 09:00:00 5.1 2 Norte 5 Nordeste 0.4 952.2 -0.3 93
2018-01-13 08:00:00 5.1 5 Nordeste 7 Este 0 952 -0.5 80
2018-01-13 07:00:00 4.8 6 Este 10 Oeste 0 951.7 -1.2 81
2018-01-13 06:00:00 4.4 5 Oeste 9 Este 0 952.5 -1.1 86
2018-01-13 05:00:00 4.2 3 Nordeste 8 Noroeste 0 952.5 -1.8 89
2018-01-13 04:00:00 4.5 2 Este 5 Nordeste 0 952.9 -1.8 87
2018-01-13 03:00:00 4.2 4 Noroeste 9 Este 0 953.6 -1.5 88
2018-01-13 02:00:00 4.4 4 Noroeste 8 Nordeste 0 954.3 -0.9 89
2018-01-13 01:00:00 4.9 6 Nordeste 9 Nordeste 0 954.7 -0.9 86
2018-01-13 00:00:00 4.5 3 Noroeste 11 Nordeste 0 955.1 -0.9 86
2018-01-12 23:00:00 4.7 6 Nordeste 12 Nordeste 0 955.2 -0.9 83
2018-01-12 22:00:00 5 7 Nordeste 11 Nordeste 0 955.6 -0.6 83
2018-01-12 21:00:00 5.2 3 Noroeste 12 Nordeste 0 956 0 81
2018-01-12 20:00:00 5.4 8 Nordeste 13 Nordeste 0 956.1 -0.2 81
2018-01-12 19:00:00 6.4 8 Nordeste 11 Nordeste 0 956.2 -0.1 77
2018-01-12 18:00:00 9.1 2 Sudoeste 9 Sudoeste 0 956 -0.5 63
2018-01-12 17:00:00 10.6 5 Oeste 12 Sudoeste 0 956.3 -1 57
2018-01-12 16:00:00 11.2 8 Sudoeste 14 Sudoeste 0 956.3 -1.7 53
2018-01-12 15:00:00 11.5 8 Sudoeste 15 Sudoeste 0 956.5 -2.2 52
2018-01-12 14:00:00 11.4 5 Sur 15 Sudoeste 0 957.3 -1.8 47
2018-01-12 13:00:00 10.4 6 Sur 14 Sudoeste 0 958 -0.3 52
2018-01-12 12:00:00 8.9 5 Sur 12 Sur 0 958.7 0.4 54
2018-01-12 11:00:00 6.9 3 Sudoeste 7 Oeste 0 959.1 1.1 67
2018-01-12 10:00:00 3.8 3 Sudeste 14 Este 0 958.3 0.3 87
2018-01-12 09:00:00 1.9 9 Nordeste 14 Nordeste 0 958.3 0.3 88
2018-01-12 08:00:00 2.5 9 Nordeste 13 Nordeste 0 958 -0.1 86
2018-01-12 07:00:00 1.7 6 Norte 11 Nordeste 0 958 -0.7 90
2018-01-12 06:00:00 1.7 4 Norte 9 Oeste 0 958 -0.3 92
2018-01-12 05:00:00 3.1 2 Norte 9 Nordeste 0 958.1 -0.8 86
2018-01-12 04:00:00 4 3 Oeste 14 Noroeste 0 958.7 -0.9 83
2018-01-12 03:00:00 4.1 5 Sudoeste 14 Sudoeste 0 958.3 -1.8 87
2018-01-12 02:00:00 5.1 11 Norte 29 Nordeste 0 958.9 -1 86
2018-01-12 01:00:00 6.1 26 Nordeste 49 Norte 0 959.6 -0.3 82
2018-01-12 00:00:00 6.4 17 Norte 36 Norte 0 960.1 0.5 85
2018-01-11 23:00:00 6.5 12 Norte 21 Norte 0 959.9 0.6 89
2018-01-11 22:00:00 6.8 9 Noroeste 22 Norte 0 959.9 0.9 86
2018-01-11 21:00:00 7.3 4 Oeste 17 Norte 0 959.6 0.7 84
2018-01-11 20:00:00 7.3 5 Oeste 17 Noroeste 0 959.3 0.9 86
2018-01-11 19:00:00 8 6 Noroeste 20 Norte 0 959 0.4 82
2018-01-11 18:00:00 9 8 Norte 27 Noroeste 0 958.9 0.1 80
2018-01-11 17:00:00 10.5 9 Noroeste 41 Norte 0 958.4 -0.8 72
2018-01-11 16:00:00 10.8 20 Noroeste 45 Noroeste 0 958.6 -1 69
2018-01-11 15:00:00 10.6 12 Noroeste 39 Norte 0 958.8 -1.5 71
2018-01-11 14:00:00 10 12 Noroeste 41 Norte 0 959.2 -0.8 74
2018-01-11 13:00:00 9.5 19 Norte 43 Noroeste 0.2 959.6 0.2 78
2018-01-11 12:00:00 8.9 12 Noroeste 41 Noroeste 0 960.3 1.3 85
2018-01-11 11:00:00 8.3 12 Noroeste 30 Norte 0 960 1 85
2018-01-11 10:00:00 7.6 13 Noroeste 30 Norte 0 959.4 0.7 87
2018-01-11 09:00:00 6.4 6 Oeste 22 Oeste 0 959 0.3 90
2018-01-11 08:00:00 5.9 6 Sudoeste 18 Noroeste 0 959 0.1 90
2018-01-11 07:00:00 5.9 8 Oeste 24 Noroeste 0 958.7 -0.4 90
2018-01-11 06:00:00 5.2 6 Oeste 15 Noroeste 0 958.7 -0.4 91
2018-01-11 05:00:00 5 6 Oeste 15 Noroeste 0 958.9 -0.2 89
2018-01-11 04:00:00 4.8 6 Noroeste 12 Noroeste 0 959.1 0.3 89
2018-01-11 03:00:00 6.1 7 Noroeste 23 Noroeste 0 959.1 0.9 85
2018-01-11 02:00:00 6.6 10 Norte 35 Noroeste 0 959.1 1 86
2018-01-11 01:00:00 7 18 Norte 41 Norte 0 958.8 1 85
2018-01-11 00:00:00 7.1 19 Norte 39 Norte 0 958.2 0.9 85
2018-01-10 23:00:00 7.5 19 Norte 42 Norte 0 958.1 1.3 82
2018-01-10 22:00:00 8.2 20 Norte 42 Noroeste 0 957.8 1.7 86
2018-01-10 21:00:00 8.6 17 Noroeste 42 Noroeste 0 957.3 1.5 85
2018-01-10 20:00:00 9 17 Noroeste 39 Noroeste 0 956.8 1.5 88
2018-01-10 19:00:00 9.3 15 Noroeste 42 Noroeste 0.2 956.1 1.1 88
2018-01-10 18:00:00 10.7 12 Oeste 40 Oeste 0.2 955.8 0.5 88
2018-01-10 17:00:00 12.5 13 Oeste 31 Noroeste 0 955.3 -0.6 74
2018-01-10 16:00:00 12.6 13 Oeste 30 Sudoeste 0 955 -1.3 75
2018-01-10 15:00:00 12.4 16 Oeste 37 Noroeste 0 955.3 -1.4 78
2018-01-10 14:00:00 11 14 Noroeste 30 Oeste 0 955.9 -0.6 84
2018-01-10 13:00:00 10.9 13 Oeste 27 Noroeste 0 956.3 0.8 87
2018-01-10 12:00:00 10.3 15 Oeste 27 Oeste 0 956.7 1.7 88
2018-01-10 11:00:00 9.2 10 Oeste 23 Oeste 0 956.5 2.4 96
2018-01-10 10:00:00 8.5 7 Oeste 27 Norte 0.4 955.5 2.1 93
2018-01-10 09:00:00 8.7 10 Noroeste 24 Noroeste 0 955 2.6 95
2018-01-10 08:00:00 8.6 12 Noroeste 25 Oeste 0 954.1 2.2 95
2018-01-10 07:00:00 8 5 Oeste 32 Oeste 0 953.4 2.2 93
2018-01-10 06:00:00 8.1 12 Noroeste 36 Noroeste 0 952.4 2 91
2018-01-10 05:00:00 7.2 7 Norte 41 Norte 0 951.9 1.5 92
2018-01-10 04:00:00 7.7 14 Norte 45 Norte 0 951.2 0.9 92
2018-01-10 03:00:00 8.2 17 Norte 53 Norte 0.2 950.4 -0.1 91
2018-01-10 02:00:00 9.4 13 Noroeste 33 Norte 0 950.4 0.4 92
2018-01-10 01:00:00 9.5 8 Oeste 19 Noroeste 0 950.3 0.3 97
2018-01-10 00:00:00 9.1 9 Noroeste 19 Norte 0 950.5 0.9 98
2018-01-09 23:00:00 8.9 3 Noroeste 5 Nordeste 0.2 950 0 98
2018-01-09 22:00:00 8.9 3 Nordeste 9 Este 1.2 950 0.2 98
2018-01-09 21:00:00 8.5 5 Este 11 Nordeste 1.6 949.6 -0.3 98
2018-01-09 20:00:00 8.1 6 Sudeste 10 Este 2.8 950 0.2 98
2018-01-09 19:00:00 7.7 8 Sudeste 21 Sur 2.8 949.8 -0.1 98
2018-01-09 18:00:00 7.5 13 Sur 36 Sur 2 949.9 -0.6 98
2018-01-09 17:00:00 7.1 13 Sur 36 Sur 2.8 949.8 -1.6 98
2018-01-09 16:00:00 6.9 15 Sur 28 Sur 2.6 949.9 -2.3 98
2018-01-09 15:00:00 7 13 Sur 22 Sudeste 1.4 950.5 -2.5 98
2018-01-09 14:00:00 5.8 9 Sur 17 Sudeste 2.4 951.4 -1.1 98
2018-01-09 13:00:00 5.1 4 Sudeste 10 Este 1.8 952.2 0.4 96
2018-01-09 12:00:00 5 4 Sudeste 8 Este 0.2 953 1.8 91
2018-01-09 11:00:00 4.9 3 Este 7 Este 0 952.5 1.5 80
2018-01-09 10:00:00 3.8 4 Este 7 Este 0 951.8 1.1 85
2018-01-09 09:00:00 3.1 5 Nordeste 7 Nordeste 0 951.2 1 85
2018-01-09 08:00:00 2.5 4 Sudeste 7 Este 0 951 0.9 87
2018-01-09 07:00:00 2.3 2 Norte 10 Nordeste 0 950.7 0.9 86
2018-01-09 06:00:00 2.1 7 Este 9 Este 0 950.2 1 86
2018-01-09 05:00:00 2 2 Nordeste 9 Nordeste 0 950.1 0.8 86
2018-01-09 04:00:00 1 4 Noroeste 11 Nordeste 0 949.8 0.5 89
2018-01-09 03:00:00 1 2 Sudoeste 13 Nordeste 0 949.2 -0.4 89
2018-01-09 02:00:00 1 3 Oeste 13 Nordeste 0 949.3 0 89
2018-01-09 01:00:00 1.8 7 Nordeste 12 Nordeste 0 949.3 0.6 86
2018-01-09 00:00:00 2.6 4 Norte 11 Nordeste 0 949.6 1.3 85
2018-01-08 23:00:00 2.7 3 Sudoeste 14 Nordeste 0 949.3 1.9 83
2018-01-08 22:00:00 3 6 Norte 18 Nordeste 0 948.7 1.9 83
2018-01-08 21:00:00 2.6 12 Norte 15 Norte 0 948.3 2.2 87
2018-01-08 20:00:00 3.1 6 Nordeste 13 Este 0 947.4 2.2 84
2018-01-08 19:00:00 5 5 Nordeste 16 Sudeste 0 946.8 2.7 76
2018-01-08 18:00:00 6.1 3 Nordeste 17 Norte 0 946.1 2.7 73
2018-01-08 17:00:00 6.6 10 Norte 21 Nordeste 0 945.2 1.9 71
2018-01-08 16:00:00 6.8 11 Nordeste 21 Nordeste 0 944.1 0.7 72
2018-01-08 15:00:00 7 8 Nordeste 25 Nordeste 0 943.4 -0.6 75
2018-01-08 14:00:00 6.2 13 Nordeste 33 Nordeste 0 943.3 0.1 75
2018-01-08 13:00:00 5.9 11 Este 29 Este 0 943.4 1.6 79
2018-01-08 12:00:00 4.9 7 Nordeste 23 Norte 0 944 3.4 83
2018-01-08 11:00:00 3.4 6 Este 21 Este 0 943.2 3.7 89
2018-01-08 10:00:00 2.9 9 Este 20 Este 0 941.8 2.5 94
2018-01-08 09:00:00 2.6 8 Este 22 Norte 0 940.6 1.6 94
2018-01-08 08:00:00 2.8 13 Nordeste 24 Nordeste 0 939.5 0.6 94
2018-01-08 07:00:00 2.6 12 Norte 19 Norte 0.2 939.3 1.1 93
2018-01-08 06:00:00 2.9 3 Nordeste 8 Nordeste 0.4 939 1 95
2018-01-08 05:00:00 3.1 6 Nordeste 8 Norte 1.4 938.9 1.1 95
2018-01-08 04:00:00 3.6 5 Este 8 Este 1.2 938.2 -0.1 95
2018-01-08 03:00:00 3.6 2 Oeste 6 Nordeste 0 938 -0.4 92
2018-01-08 02:00:00 3.5 5 Nordeste 6 Nordeste 0 937.8 -0.2 90
2018-01-08 01:00:00 3.4 3 Nordeste 7 Nordeste 0 938.3 0.3 88
2018-01-08 00:00:00 3.8 3 Norte 4 Norte 0 938.4 0.4 87
2018-01-07 23:00:00 4 3 Nordeste 5 Nordeste 0 938 0.2 86
2018-01-07 22:00:00 4.2 3 Nordeste 7 Este 0 938 0.9 85
2018-01-07 21:00:00 4.4 5 Este 8 Este 0 938 1.5 86
2018-01-07 20:00:00 4.3 3 Noroeste 11 Noroeste 0 937.8 1.8 87
2018-01-07 19:00:00 4.7 3 Norte 6 Oeste 0 937.1 1.6 77
2018-01-07 18:00:00 5.2 5 Oeste 18 Norte 0 936.5 1.3 73
2018-01-07 17:00:00 5.3 10 Norte 26 Norte 0 936 0.7 67
2018-01-07 16:00:00 5.6 10 Norte 30 Noroeste 0 935.5 -0.1 67
2018-01-07 15:00:00 5.5 14 Norte 31 Norte 0 935.2 -0.6 68
2018-01-07 14:00:00 4.6 19 Norte 34 Norte 0 935.3 -0.4 77
2018-01-07 13:00:00 4.8 15 Norte 37 Norte 0 935.6 0.7 79
2018-01-07 12:00:00 3.8 16 Norte 32 Nordeste 0 935.8 1.2 80
2018-01-07 11:00:00 3.1 16 Norte 32 Nordeste 0 935.7 1.3 75
2018-01-07 10:00:00 3.2 14 Norte 33 Nordeste 0 934.9 0.6 72
2018-01-07 09:00:00 1.8 17 Norte 35 Nordeste 0 934.6 0.4 84
2018-01-07 08:00:00 2 15 Nordeste 39 Norte 0 934.4 -0.1 86
2018-01-07 07:00:00 2.1 23 Norte 39 Norte 0 934.3 -0.9 83
2018-01-07 06:00:00 2.2 15 Norte 38 Norte 0 934.2 -1.1 84
2018-01-07 05:00:00 2.1 14 Noroeste 29 Norte 0 934.5 -0.8 87
2018-01-07 04:00:00 2 20 Norte 41 Norte 0 935.2 -1 88
2018-01-07 03:00:00 1.9 20 Norte 40 Norte 0 935.3 -1 89
2018-01-07 02:00:00 2.1 24 Norte 38 Norte 0 935.3 -0.9 88
2018-01-07 01:00:00 2.4 13 Norte 29 Noroeste 0 936.2 0 85
2018-01-07 00:00:00 2.5 8 Noroeste 42 Norte 0 936.3 -0.1 81
2018-01-06 23:00:00 3.3 23 Norte 55 Norte 0 936.2 -0.3 76
2018-01-06 22:00:00 3.9 23 Norte 44 Norte 0 936.2 0 72
2018-01-06 21:00:00 4.2 14 Norte 33 Norte 0 936.4 0.4 68
2018-01-06 20:00:00 4.5 14 Noroeste 27 Noroeste 0 936.5 1 66
2018-01-06 19:00:00 4.8 8 Noroeste 30 Norte 0 936.2 1.1 59
2018-01-06 18:00:00 5.7 12 Norte 43 Noroeste 0 936 1 57
2018-01-06 17:00:00 7.4 18 Norte 46 Noroeste 0 935.5 0.8 55
2018-01-06 16:00:00 7.7 22 Norte 41 Noroeste 0 935.1 0 55
2018-01-06 15:00:00 7.6 22 Norte 49 Norte 0 935 -0.5 55
2018-01-06 14:00:00 6.9 26 Norte 46 Norte 0 934.7 -0.2 57
2018-01-06 13:00:00 6.5 21 Norte 56 Norte 0 935.1 0.1 72
2018-01-06 12:00:00 5.7 30 Norte 64 Norte 0 935.5 0.7 75
2018-01-06 11:00:00 4.6 41 Norte 62 Norte 0 934.9 0.4 80
2018-01-06 10:00:00 3.9 27 Norte 43 Norte 0 935 1 87
2018-01-06 09:00:00 3.8 16 Norte 33 Norte 0 934.8 0.7 91
2018-01-06 08:00:00 4.4 16 Noroeste 31 Norte 0 934.5 -0.4 91
2018-01-06 07:00:00 5 14 Norte 38 Nordeste 0 934 -0.6 91
2018-01-06 06:00:00 5.6 12 Norte 28 Nordeste 0.8 934.1 -0.8 92
2018-01-06 05:00:00 6.2 6 Norte 32 Norte 0 934.9 -1.4 89
2018-01-06 04:00:00 6.3 13 Norte 30 Norte 0 934.6 -2.6 93
2018-01-06 03:00:00 5.9 15 Norte 29 Norte 0.2 934.9 -3.6 92
2018-01-06 02:00:00 5.8 9 Norte 30 Nordeste 0.2 936.3 -3.3 89
2018-01-06 01:00:00 5.6 13 Nordeste 61 Norte 3.2 937.2 -2.3 92
2018-01-06 00:00:00 6.5 23 Norte 39 Norte 4.6 938.5 -1.4 93
2018-01-05 23:00:00 7.9 6 Oeste 14 Oeste 3.2 939.6 -1.1 97
2018-01-05 22:00:00 8.1 5 Noroeste 19 Sudoeste 2 939.5 -2.4 97
2018-01-05 21:00:00 8.1 3 Este 6 Sur 0 939.9 -2.5 97
2018-01-05 20:00:00 8.4 3 Sudeste 8 Nordeste 3.2 940.7 -2.5 97
2018-01-05 19:00:00 8.9 4 Sudoeste 8 Sudeste 4.8 941.9 -2.1 97
2018-01-05 18:00:00 9.1 5 Sur 27 Oeste 4.6 942.4 -2.7 95
2018-01-05 17:00:00 10 12 Sudoeste 30 Sudoeste 2.8 943.2 -3.3 96
2018-01-05 16:00:00 10.5 15 Sudoeste 33 Sudoeste 0 944 -4.2 86
2018-01-05 15:00:00 11 19 Sudoeste 36 Sudoeste 0 945.1 -4.7 82
2018-01-05 14:00:00 10.8 19 Sudoeste 37 Sudoeste 0 946.5 -4.3 82
2018-01-05 13:00:00 10.3 13 Sudoeste 26 Sudoeste 0 948.2 -3.1 87
2018-01-05 12:00:00 9.6 13 Sudoeste 26 Sudoeste 0 949.8 -2.3 92
2018-01-05 11:00:00 9.3 9 Sudoeste 24 Oeste 0 950.8 -1.5 96
2018-01-05 10:00:00 8.9 13 Oeste 27 Oeste 0 951.3 -1.4 96
2018-01-05 09:00:00 8.7 9 Oeste 27 Noroeste 0.2 952.1 -1.3 95
2018-01-05 08:00:00 8.7 11 Oeste 27 Oeste 0.6 952.3 -1.7 97
2018-01-05 07:00:00 8.7 8 Oeste 27 Oeste 0 952.7 -2 95
2018-01-05 06:00:00 9.3 9 Oeste 23 Oeste 0 953.4 -2.2 84
2018-01-05 05:00:00 9.5 12 Oeste 21 Noroeste 0 954 -2.5 83
2018-01-05 04:00:00 9.5 10 Oeste 22 Oeste 0 954.7 -2.9 84
2018-01-05 03:00:00 9.8 9 Oeste 21 Oeste 0 955.6 -2.8 83
2018-01-05 02:00:00 9.9 6 Oeste 16 Noroeste 0 956.5 -2.3 91
2018-01-05 01:00:00 9.7 4 Oeste 10 Oeste 0 957.6 -1.5 95
2018-01-05 00:00:00 9.3 4 Oeste 8 Noroeste 0 958.4 -1.1 96
2018-01-04 23:00:00 8.8 2 Noroeste 9 Oeste 0 958.8 -1.2 96
2018-01-04 22:00:00 9 2 Noroeste 5 Noroeste 0 959.1 -1 93
2018-01-04 21:00:00 10.9 3 Oeste 8 Noroeste 0 959.5 -0.7 90
2018-01-04 20:00:00 11.8 7 Noroeste 10 Noroeste 0 960 0 87
2018-01-04 19:00:00 12 4 Oeste 7 Oeste 0 960.1 -0.2 84
2018-01-04 18:00:00 12.3 5 Oeste 12 Oeste 0 960.2 -0.8 82
2018-01-04 17:00:00 12.5 4 Noroeste 17 Noroeste 0 960 -1.9 82
2018-01-04 16:00:00 12.2 9 Norte 20 Nordeste 0 960.3 -2.5 85
2018-01-04 15:00:00 12.2 3 Este 22 Noroeste 0 961 -2.5 88
2018-01-04 14:00:00 12 7 Noroeste 17 Noroeste 0 961.9 -1.5 88
2018-01-04 13:00:00 11.4 9 Norte 23 Norte 0 962.8 -0.5 91
2018-01-04 12:00:00 11.2 14 Norte 22 Norte 0 963.5 0.4 90
2018-01-04 11:00:00 11.2 7 Norte 17 Noroeste 0 963.4 0.4 93
2018-01-04 10:00:00 10.7 3 Noroeste 20 Norte 0 963.3 0.5 96
2018-01-04 09:00:00 10.5 12 Norte 19 Nordeste 0 963.1 0.1 96
2018-01-04 08:00:00 10.6 12 Norte 31 Norte 0 963 -0.2 96
2018-01-04 07:00:00 10.7 14 Norte 30 Nordeste 0 962.8 -0.6 96
2018-01-04 06:00:00 10.9 12 Nordeste 27 Nordeste 0 963 -0.4 94
2018-01-04 05:00:00 11 12 Norte 34 Nordeste 0 963.2 -0.5 93
2018-01-04 04:00:00 11.5 20 Nordeste 43 Nordeste 0 963.4 -0.9 90
2018-01-04 03:00:00 11.6 26 Norte 48 Norte 0 963.4 -1.3 89
2018-01-04 02:00:00 11.5 27 Nordeste 47 Nordeste 0 963.7 -1.5 90
2018-01-04 01:00:00 11.8 20 Norte 44 Norte 0 964.3 -0.8 89
2018-01-04 00:00:00 11.6 24 Nordeste 46 Nordeste 0 964.7 -0.4 90
2018-01-03 23:00:00 11.3 16 Norte 34 Norte 0 965.2 0 90
2018-01-03 22:00:00 11.7 21 Norte 33 Norte 0 965.1 0 89
2018-01-03 21:00:00 11.9 21 Norte 36 Norte 0 965.1 0.2 87
2018-01-03 20:00:00 12.1 12 Nordeste 29 Norte 0 965.2 1 84
2018-01-03 19:00:00 11.7 5 Sudeste 27 Nordeste 0 965.1 0.2 85
2018-01-03 18:00:00 12.2 6 Sudoeste 49 Nordeste 0 964.9 -0.7 82
2018-01-03 17:00:00 12.6 35 Norte 57 Nordeste 0 964.2 -1.9 82
2018-01-03 16:00:00 13.7 25 Norte 42 Norte 0 964.9 -2 80
2018-01-03 15:00:00 15.5 12 Norte 24 Nordeste 0 965.6 -1.9 70
2018-01-03 14:00:00 15.6 12 Norte 25 Nordeste 0 966.1 -1.2 72
2018-01-03 13:00:00 15.7 10 Norte 21 Nordeste 0 966.9 -0.1 70
2018-01-03 12:00:00 15 4 Este 19 Noroeste 0 967.5 1 75
2018-01-03 11:00:00 12 9 Este 35 Nordeste 0 967.3 1.7 86
2018-01-03 10:00:00 10.6 13 Nordeste 32 Nordeste 0 967 1.3 93
2018-01-03 09:00:00 10.4 9 Este 32 Nordeste 0 966.5 0.8 93
2018-01-03 08:00:00 10.2 18 Norte 52 Norte 0 965.6 -0.6 93
2018-01-03 07:00:00 10.1 19 Norte 41 Nordeste 0 965.7 -0.4 94
2018-01-03 06:00:00 10.2 13 Nordeste 40 Nordeste 0 965.7 -0.2 93
2018-01-03 05:00:00 10.1 8 Este 36 Norte 0 966.2 0 95
2018-01-03 04:00:00 10.2 3 Sudoeste 21 Nordeste 0 966.1 -0.1 93
2018-01-03 03:00:00 10.1 8 Nordeste 27 Nordeste 0 965.9 -0.7 93
2018-01-03 02:00:00 10.2 14 Nordeste 35 Nordeste 0 966.2 -0.8 92
2018-01-03 01:00:00 10.2 23 Nordeste 42 Nordeste 0 966.2 -0.8 91
2018-01-03 00:00:00 10 19 Norte 36 Nordeste 0 966.6 -0.1 90
2018-01-02 23:00:00 9.9 9 Nordeste 32 Norte 0 967 0.2 89
2018-01-02 22:00:00 10.1 9 Norte 24 Norte 0 967 0.6 89
2018-01-02 21:00:00 10.2 9 Norte 29 Norte 0 966.7 0.4 88
2018-01-02 20:00:00 10.3 8 Norte 23 Norte 0 966.8 0.6 86
2018-01-02 19:00:00 10.8 15 Norte 27 Norte 0 966.4 0.1 82
2018-01-02 18:00:00 11.6 10 Norte 20 Norte 0 966.3 -0.1 77
2018-01-02 17:00:00 14 10 Norte 21 Nordeste 0 966.2 -0.4 68
2018-01-02 16:00:00 14.1 5 Norte 32 Nordeste 0 966.3 -0.7 69
2018-01-02 15:00:00 13.2 12 Norte 32 Nordeste 0 966.4 -1.3 70
2018-01-02 14:00:00 12.7 9 Norte 27 Norte 0 966.6 -1.3 70
2018-01-02 13:00:00 12.8 8 Noroeste 27 Nordeste 0 967 -0.2 70
2018-01-02 12:00:00 11.4 15 Nordeste 37 Nordeste 0 967.7 1 74
2018-01-02 11:00:00 10.3 10 Norte 31 Nordeste 0 967.9 1.7 79
2018-01-02 10:00:00 8.8 8 Norte 30 Norte 0 967.2 1.6 84
2018-01-02 09:00:00 7.6 8 Nordeste 26 Norte 0 966.7 1.3 86
2018-01-02 08:00:00 7.5 18 Norte 44 Norte 0 966.2 0.4 84
2018-01-02 07:00:00 7.8 19 Nordeste 41 Nordeste 0 965.6 -0.7 81
2018-01-02 06:00:00 8.3 25 Nordeste 40 Nordeste 0 965.4 -1.2 77
2018-01-02 05:00:00 8 24 Nordeste 41 Norte 0 965.8 -0.8 80
2018-01-02 04:00:00 8.3 26 Norte 41 Norte 0 966.3 -0.3 82
2018-01-02 03:00:00 8.1 19 Nordeste 37 Nordeste 0 966.6 0.1 91
2018-01-02 02:00:00 8.2 14 Nordeste 35 Norte 0 966.6 -0.3 86
2018-01-02 01:00:00 8.7 20 Norte 41 Nordeste 0 966.6 0 83
2018-01-02 00:00:00 8.8 29 Norte 46 Norte 0 966.5 -0.1 82
2018-01-01 23:00:00 8.8 21 Norte 39 Norte 0 966.9 -0.1 79
2018-01-01 22:00:00 8.6 15 Nordeste 33 Norte 0 966.6 -0.1 80
2018-01-01 21:00:00 8.8 15 Nordeste 31 Nordeste 0 966.6 0.3 78
2018-01-01 20:00:00 8.5 4 Norte 15 Noroeste 0 967 0.7 77
2018-01-01 19:00:00 9.1 5 Sudoeste 20 Noroeste 0 966.7 0.5 71
2018-01-01 18:00:00 10 9 Norte 28 Norte 0 966.3 -0.1 63
2018-01-01 17:00:00 11.7 12 Norte 25 Norte 0 966.3 -0.3 46
2018-01-01 16:00:00 12.5 13 Noroeste 23 Noroeste 0 966.2 -1.4 42
2018-01-01 15:00:00 12.9 11 Norte 21 Norte 0 966.4 -1.8 44
2018-01-01 14:00:00 14 7 Noroeste 20 Noroeste 0 966.6 -1.3 38
2018-01-01 13:00:00 13.3 13 Noroeste 22 Noroeste 0 967.6 0.2 27
2018-01-01 12:00:00 12.2 9 Noroeste 25 Noroeste 0 968.2 1.8 45
2018-01-01 11:00:00 9.9 13 Noroeste 26 Noroeste 0 967.9 1.7 59
2018-01-01 10:00:00 7.7 4 Sudoeste 13 Oeste 0 967.4 1.4 71
2018-01-01 09:00:00 6.3 7 Oeste 16 Noroeste 0 966.4 1.3 81
2018-01-01 08:00:00 5.7 8 Oeste 17 Oeste 0 966.2 1.7 86
2018-01-01 07:00:00 4.4 4 Oeste 12 Nordeste 0 966 1.5 63
2018-01-01 06:00:00 7 4 Noroeste 12 Nordeste 0 965.1 0.5 48
2018-01-01 05:00:00 8.5 7 Nordeste 33 Nordeste 0 964.5 -0.7 42
2018-01-01 04:00:00 8.7 24 Norte 48 Norte 0 964.5 -1 53
2018-01-01 03:00:00 7.9 33 Norte 46 Norte 0 964.6 -1.4 65
2018-01-01 02:00:00 7.8 28 Norte 39 Norte 0 965.2 0.2 79
2018-01-01 01:00:00 7.6 20 Nordeste 40 Nordeste 0 965.5 1.1 88
2018-01-01 00:00:00 8.1 21 Norte 42 Norte 0 966 2.6 88
2017-12-31 23:00:00 8.8 25 Norte 44 Nordeste 0 965 2.5 86
2017-12-31 22:00:00 9.6 21 Norte 42 Norte 0 964.4 3 87
2017-12-31 21:00:00 9.9 28 Norte 45 Norte 0 963.4 2.9 85
2017-12-31 20:00:00 9.9 23 Norte 46 Norte 0 962.5 2.5 87
2017-12-31 19:00:00 10.8 15 Noroeste 29 Noroeste 0.4 961.4 1.7 93
2017-12-31 18:00:00 11.2 11 Noroeste 21 Noroeste 0.2 960.5 0.9 92
2017-12-31 17:00:00 11.6 13 Oeste 30 Noroeste 0 960 0.3 88
2017-12-31 16:00:00 12.6 14 Oeste 31 Oeste 0 959.7 -0.7 76
2017-12-31 15:00:00 12.6 15 Oeste 34 Oeste 0 959.6 -0.9 78
2017-12-31 14:00:00 12.3 12 Oeste 26 Noroeste 0 959.7 -0.7 80
2017-12-31 13:00:00 12.2 14 Oeste 28 Oeste 0 960.4 0.7 77
2017-12-31 12:00:00 12.8 13 Oeste 24 Oeste 0 960.5 1.1 72
2017-12-31 11:00:00 11.8 10 Oeste 20 Oeste 0 960.4 1.4 78
2017-12-31 10:00:00 11 8 Oeste 19 Oeste 0 959.7 1.2 81
2017-12-31 09:00:00 10.9 10 Noroeste 17 Oeste 0 959.4 1.3 79
2017-12-31 08:00:00 10.6 8 Noroeste 21 Norte 0 959 0.7 82
2017-12-31 07:00:00 9.4 6 Noroeste 10 Noroeste 0 958.5 0 91
2017-12-31 06:00:00 8.7 0 Calma 8 Nordeste 0 958.1 -1 93
2017-12-31 05:00:00 9.2 3 Noroeste 11 Norte 0 958.3 -1.2 90
2017-12-31 04:00:00 10.3 2 Noroeste 26 Norte 0 958.5 -1.6 86
2017-12-31 03:00:00 10.9 7 Norte 22 Norte 0 959.1 -0.8 84
2017-12-31 02:00:00 10.1 5 Noroeste 8 Oeste 0 959.5 -0.4 88
2017-12-31 01:00:00 9.2 0 Calma 5 Noroeste 0 960.1 0.1 93